createdAt,value
2018-04-01T11:59:07.785Z,86.49
2018-04-01T12:00:07.779Z,86.68
2018-04-01T12:01:07.774Z,87.05
2018-04-01T12:02:07.766Z,87.05
2018-04-01T12:03:07.760Z,85.72
2018-04-01T12:04:07.761Z,85.06
2018-04-01T12:05:07.750Z,84.91
2018-04-01T12:06:07.744Z,85.20
2018-04-01T12:07:07.739Z,85.49
2018-04-01T12:08:07.733Z,84.44
2018-04-01T12:09:07.727Z,83.39
2018-04-01T12:10:07.723Z,84.25
2018-04-01T12:11:07.717Z,84.44
2018-04-01T12:12:07.711Z,84.44
2018-04-01T12:13:07.706Z,84.63
2018-04-01T12:14:07.701Z,84.53
2018-04-01T12:15:07.695Z,83.78
2018-04-01T12:16:07.691Z,84.06
2018-04-01T12:17:07.686Z,84.16
2018-04-01T12:18:07.680Z,84.53
2018-04-01T12:19:07.675Z,83.15
2018-04-01T12:20:07.694Z,82.73
2018-04-01T12:21:07.664Z,83.97
2018-04-01T12:22:07.659Z,84.63
2018-04-01T12:23:07.663Z,83.30
2018-04-01T12:24:07.649Z,84.34
2018-04-01T12:25:07.643Z,85.20
2018-04-01T12:26:07.638Z,83.68
2018-04-01T12:27:07.633Z,84.34
2018-04-01T12:28:07.628Z,84.72
2018-04-01T12:29:07.624Z,85.20
2018-04-01T12:30:07.618Z,84.40
2018-04-01T12:31:07.613Z,85.68
2018-04-01T12:32:07.611Z,85.58
2018-04-01T12:33:07.603Z,84.20
2018-04-01T12:34:07.606Z,82.87
2018-04-01T12:35:07.593Z,82.39
2018-04-01T12:36:07.588Z,82.29
2018-04-01T12:37:07.582Z,81.82
2018-04-01T12:38:07.578Z,81.06
2018-04-01T12:39:07.573Z,82.10
2018-04-01T12:40:07.568Z,81.73
2018-04-01T12:41:07.564Z,82.39
2018-04-01T12:42:07.559Z,80.96
2018-04-01T12:43:07.555Z,80.34
2018-04-01T12:44:07.550Z,80.02
2018-04-01T12:45:07.544Z,80.40
2018-04-01T12:46:07.540Z,80.87
2018-04-01T12:47:07.535Z,80.02
2018-04-01T12:48:07.532Z,80.49
2018-04-01T12:49:07.526Z,80.40
2018-04-01T12:50:07.522Z,80.91
2018-04-01T12:51:07.517Z,81.01
2018-04-01T12:52:07.513Z,79.49
2018-04-01T12:53:07.608Z,78.25
2018-04-01T12:54:07.504Z,79.06
2018-04-01T12:55:07.500Z,80.58
2018-04-01T12:56:07.509Z,81.06
2018-04-01T12:57:07.491Z,81.16
2018-04-01T12:58:07.489Z,81.92
2018-04-01T12:59:07.483Z,80.77
2018-04-01T13:00:07.481Z,79.92
2018-04-01T13:01:07.475Z,79.63
2018-04-01T13:02:07.472Z,81.16
2018-04-01T13:03:07.466Z,81.06
2018-04-01T13:04:07.462Z,81.35
2018-04-01T13:05:07.458Z,81.16
2018-04-01T13:06:07.453Z,81.63
2018-04-01T13:07:07.451Z,81.63
2018-04-01T13:08:07.445Z,82.20
2018-04-01T13:09:07.443Z,81.06
2018-04-01T13:10:07.436Z,79.73
2018-04-01T13:11:07.432Z,80.55
2018-04-01T13:12:07.428Z,81.78
2018-04-01T13:13:07.423Z,82.64
2018-04-01T13:14:07.420Z,82.64
2018-04-01T13:15:07.414Z,82.77
2018-04-01T13:16:07.410Z,82.58
2018-04-01T13:17:07.405Z,82.29
2018-04-01T13:18:07.404Z,81.16
2018-04-01T13:19:07.397Z,82.39
2018-04-01T13:20:07.393Z,82.20
2018-04-01T13:21:07.387Z,81.06
2018-04-01T13:22:07.383Z,80.58
2018-04-01T13:23:07.381Z,79.92
2018-04-01T13:24:07.407Z,80.30
2018-04-01T13:25:07.367Z,81.49
2018-04-01T13:26:07.364Z,82.49
2018-04-01T13:27:07.359Z,82.29
2018-04-01T13:28:07.357Z,81.68
2018-04-01T13:29:07.349Z,82.16
2018-04-01T13:30:07.345Z,82.01
2018-04-01T13:31:07.340Z,82.20
2018-04-01T13:32:07.336Z,81.63
2018-04-01T13:33:07.330Z,79.92
2018-04-01T13:34:07.325Z,79.73
2018-04-01T13:35:07.372Z,79.77
2018-04-01T13:36:07.316Z,79.20
2018-04-01T13:37:07.310Z,79.35
2018-04-01T13:38:07.306Z,79.44
2018-04-01T13:39:07.302Z,79.92
2018-04-01T13:40:07.295Z,80.02
2018-04-01T13:41:07.290Z,79.73
2018-04-01T13:42:07.290Z,80.96
2018-04-01T13:43:07.282Z,80.11
2018-04-01T13:44:07.277Z,80.49
2018-04-01T13:45:07.272Z,80.02
2018-04-01T13:46:07.267Z,78.91
2018-04-01T13:47:07.263Z,78.44
2018-04-01T13:48:07.259Z,77.20
2018-04-01T13:49:07.253Z,77.20
2018-04-01T13:50:07.248Z,77.39
2018-04-01T13:51:07.244Z,77.01
2018-04-01T13:52:07.240Z,77.58
2018-04-01T13:53:07.234Z,77.97
2018-04-01T13:54:07.230Z,78.72
2018-04-01T13:55:07.225Z,78.02
2018-04-01T13:56:07.221Z,78.91
2018-04-01T13:57:07.215Z,78.16
2018-04-01T13:58:07.215Z,77.58
2018-04-01T13:59:07.207Z,78.91
2018-04-01T14:00:07.202Z,77.49
2018-04-01T14:01:07.197Z,78.63
2018-04-01T14:02:07.193Z,78.16
2018-04-01T14:03:07.190Z,77.97
2018-04-01T14:04:07.185Z,76.82
2018-04-01T14:05:07.180Z,75.87
2018-04-01T14:06:07.176Z,75.53
2018-04-01T14:07:07.172Z,74.67
2018-04-01T14:08:07.168Z,74.87
2018-04-01T14:09:07.162Z,74.71
2018-04-01T14:10:07.163Z,72.71
2018-04-01T14:11:07.156Z,72.90
2018-04-01T14:12:07.156Z,72.81
2018-04-01T14:13:07.150Z,73.47
2018-04-01T14:14:07.146Z,73.47
2018-04-01T14:15:07.144Z,73.38
2018-04-01T14:16:07.141Z,72.94
2018-04-01T14:17:07.138Z,70.27
2018-04-01T14:18:07.136Z,69.99
2018-04-01T14:19:07.134Z,69.79
2018-04-01T14:20:07.133Z,69.60
2018-04-01T14:21:07.130Z,69.89
2018-04-01T14:22:07.127Z,69.99
2018-04-01T14:23:07.227Z,69.70
2018-04-01T14:24:07.127Z,70.37
2018-04-01T14:25:07.125Z,70.72
2018-04-01T14:26:07.125Z,71.19
2018-04-01T14:32:20.260Z,71.09
2018-04-01T14:33:20.259Z,70.33
2018-04-01T14:34:20.260Z,70.81
2018-04-01T14:35:20.258Z,71.63
2018-04-01T14:36:20.259Z,72.33
2018-04-01T14:37:20.259Z,72.42
2018-04-01T14:38:20.409Z,70.52
2018-04-01T14:39:20.262Z,69.95
2018-04-01T14:40:20.258Z,70.14
2018-04-01T14:41:20.258Z,70.24
2018-04-01T14:42:20.256Z,70.72
2018-04-01T14:43:20.281Z,71.44
2018-04-01T14:44:20.255Z,71.95
2018-04-01T14:45:20.254Z,71.95
2018-04-01T14:46:20.254Z,71.38
2018-04-01T14:47:20.251Z,71.00
2018-04-01T14:48:20.249Z,70.72
2018-04-01T14:49:20.248Z,69.85
2018-04-01T14:50:20.245Z,70.14
2018-04-01T14:51:20.244Z,70.81
2018-04-01T14:52:20.242Z,70.24
2018-04-01T14:53:20.240Z,70.62
2018-04-01T14:54:20.237Z,70.72
2018-04-01T14:55:20.234Z,70.90
2018-04-01T14:56:20.281Z,70.24
2018-04-01T14:57:20.230Z,69.67
2018-04-01T14:58:20.226Z,71.00
2018-04-01T14:59:20.224Z,70.90
2018-04-01T15:00:20.220Z,69.95
2018-04-01T15:01:20.218Z,70.90
2018-04-01T15:02:20.215Z,71.19
2018-04-01T15:03:20.212Z,70.18
2018-04-01T15:04:20.208Z,69.79
2018-04-01T15:05:20.206Z,70.08
2018-04-01T15:06:20.203Z,70.18
2018-04-01T15:07:20.200Z,69.51
2018-04-01T15:08:20.219Z,69.51
2018-04-01T15:09:20.194Z,67.80
2018-04-01T15:10:20.190Z,66.85
2018-04-01T15:11:20.188Z,65.99
2018-04-01T15:12:20.184Z,66.37
2018-04-01T15:13:20.182Z,67.19
2018-04-01T15:14:20.260Z,66.91
2018-04-01T15:15:20.175Z,68.90
2018-04-01T15:16:20.171Z,68.62
2018-04-01T15:17:20.168Z,68.43
2018-04-01T15:18:20.183Z,69.48
2018-04-01T15:19:20.161Z,68.90
2018-04-01T15:20:20.157Z,68.62
2018-04-01T15:21:20.154Z,68.15
2018-04-01T15:22:20.150Z,67.95
2018-04-01T15:23:20.151Z,67.41
2018-04-01T15:24:20.152Z,67.89
2018-04-01T15:25:20.154Z,67.51
2018-04-01T15:26:20.133Z,67.29
2018-04-01T15:27:20.130Z,65.99
2018-04-01T15:28:20.127Z,67.57
2018-04-01T15:29:20.123Z,67.67
2018-04-01T15:30:20.119Z,68.15
2018-04-01T15:31:20.116Z,68.65
2018-04-01T15:32:20.111Z,69.51
2018-04-01T15:33:20.108Z,68.46
2018-04-01T15:34:20.110Z,68.37
2018-04-01T15:35:20.101Z,68.27
2018-04-01T15:36:20.101Z,68.08
2018-04-01T15:37:20.104Z,68.15
2018-04-01T15:38:20.104Z,69.57
2018-04-01T15:39:20.085Z,70.43
2018-04-01T15:40:20.084Z,69.76
2018-04-01T15:41:20.078Z,69.29
2018-04-01T15:42:20.073Z,69.00
2018-04-01T15:43:20.070Z,68.24
2018-04-01T15:44:20.074Z,68.05
2018-04-01T15:45:20.063Z,68.33
2018-04-01T15:46:20.058Z,68.15
2018-04-01T15:47:20.055Z,68.05
2018-04-01T15:48:20.056Z,68.43
2018-04-01T15:49:20.051Z,68.24
2018-04-01T15:50:20.044Z,69.29
2018-04-01T15:51:20.039Z,67.67
2018-04-01T15:52:20.082Z,67.19
2018-04-01T15:53:20.033Z,68.43
2018-04-01T15:54:20.027Z,68.81
2018-04-01T15:55:20.025Z,68.43
2018-04-01T15:56:20.020Z,68.43
2018-04-01T15:57:20.048Z,68.40
2018-04-01T15:58:20.012Z,68.05
2018-04-01T15:59:20.008Z,68.59
2018-04-01T16:00:20.003Z,70.01
2018-04-01T16:01:20.000Z,69.35
2018-04-01T16:02:19.995Z,70.20
2018-04-01T16:03:19.993Z,70.10
2018-04-01T16:04:19.988Z,70.01
2018-04-01T16:05:19.984Z,69.73
2018-04-01T16:06:19.979Z,70.58
2018-04-01T16:07:19.975Z,71.15
2018-04-01T16:08:20.070Z,71.06
2018-04-01T16:09:19.967Z,72.20
2018-04-01T16:10:19.962Z,72.77
2018-04-01T16:11:19.958Z,72.67
2018-04-01T16:12:19.954Z,72.39
2018-04-01T16:13:19.949Z,72.86
2018-04-01T16:14:19.949Z,72.67
2018-04-01T16:15:19.941Z,72.86
2018-04-01T16:16:19.936Z,72.16
2018-04-01T16:17:19.932Z,72.55
2018-04-01T16:18:19.929Z,73.49
2018-04-01T16:19:19.926Z,73.40
2018-04-01T16:20:19.919Z,73.97
2018-04-01T16:21:19.914Z,74.35
2018-04-01T16:22:19.909Z,74.63
2018-04-01T16:23:19.904Z,75.40
2018-04-01T16:24:19.900Z,74.82
2018-04-01T16:25:19.897Z,75.30
2018-04-01T16:26:19.890Z,76.25
2018-04-01T16:27:19.886Z,76.06
2018-04-01T16:28:19.884Z,76.21
2018-04-01T16:29:19.876Z,77.11
2018-04-01T16:30:19.872Z,77.39
2018-04-01T16:31:19.866Z,76.69
2018-04-01T16:32:19.862Z,77.07
2018-04-01T16:33:19.857Z,78.11
2018-04-01T16:34:19.849Z,78.50
2018-04-01T16:35:19.846Z,78.21
2018-04-01T16:36:19.841Z,77.64
2018-04-01T16:37:19.835Z,77.73
2018-04-01T16:38:19.829Z,78.11
2018-04-01T16:39:19.823Z,78.97
2018-04-01T16:40:19.818Z,79.16
2018-04-01T16:41:19.814Z,78.88
2018-04-01T16:42:19.807Z,77.64
2018-04-01T16:43:19.802Z,78.69
2018-04-01T16:44:19.797Z,79.06
2018-04-01T16:45:19.791Z,79.25
2018-04-01T16:46:19.849Z,78.97
2018-04-01T16:47:19.781Z,78.59
2018-04-01T16:48:19.773Z,78.59
2018-04-01T16:49:19.774Z,79.44
2018-04-01T16:50:19.761Z,78.97
2018-04-01T16:51:19.755Z,79.22
2018-04-01T16:52:19.749Z,79.31
2018-04-01T16:53:19.744Z,79.79
2018-04-01T16:54:19.738Z,79.97
2018-04-01T16:55:19.735Z,79.88
2018-04-01T16:56:19.727Z,79.63
2018-04-01T16:57:19.721Z,80.30
2018-04-01T16:58:19.714Z,78.40
2018-04-01T16:59:19.708Z,78.50
2018-04-01T17:00:19.702Z,78.59
2018-04-01T17:01:19.698Z,78.88
2018-04-01T17:02:19.690Z,79.06
2018-04-01T17:03:19.685Z,78.55
2018-04-01T17:04:19.679Z,79.12
2018-04-01T17:05:19.673Z,79.22
2018-04-01T17:06:19.666Z,79.41
2018-04-01T17:07:19.668Z,79.22
2018-04-01T17:08:19.655Z,78.74
2018-04-01T17:09:19.716Z,78.08
2018-04-01T17:10:19.642Z,78.55
2018-04-01T17:11:19.636Z,79.41
2018-04-01T17:12:19.632Z,78.93
2018-04-01T17:13:19.623Z,79.03
2018-04-01T17:14:19.620Z,77.89
2018-04-01T17:15:19.611Z,77.89
2018-04-01T17:16:19.612Z,78.08
2018-04-01T17:17:19.600Z,77.60
2018-04-01T17:18:19.593Z,78.93
2018-04-01T17:19:19.587Z,78.64
2018-04-01T17:20:19.581Z,78.64
2018-04-01T17:21:19.586Z,78.83
2018-04-01T17:22:19.568Z,78.55
2018-04-01T17:23:19.562Z,79.22
2018-04-01T17:24:19.556Z,78.83
2018-04-01T17:25:19.551Z,79.50
2018-04-01T17:26:19.543Z,78.36
2018-04-01T17:27:19.539Z,77.98
2018-04-01T17:28:19.531Z,78.55
2018-04-01T17:29:19.525Z,79.12
2018-04-01T17:30:19.519Z,79.12
2018-04-01T17:31:19.511Z,79.03
2018-04-01T17:32:19.505Z,78.83
2018-04-01T17:33:19.500Z,79.03
2018-04-01T17:34:19.497Z,79.41
2018-04-01T17:35:19.505Z,79.79
2018-04-01T17:36:19.481Z,79.60
2018-04-01T17:37:19.474Z,79.69
2018-04-01T17:38:19.567Z,79.41
2018-04-01T17:39:19.478Z,79.97
2018-04-01T17:40:19.455Z,80.07
2018-04-01T17:41:19.471Z,79.69
2018-04-01T17:42:19.442Z,79.88
2018-04-01T17:43:19.434Z,79.69
2018-04-01T17:44:19.429Z,79.69
2018-04-01T17:45:19.424Z,78.83
2018-04-01T17:46:19.416Z,78.93
2018-04-01T17:47:19.410Z,78.93
2018-04-01T17:48:19.403Z,79.27
2018-04-01T17:49:19.398Z,79.17
2018-04-01T17:50:19.391Z,79.03
2018-04-01T17:51:19.384Z,79.46
2018-04-01T17:52:19.418Z,78.99
2018-04-01T17:53:19.372Z,78.93
2018-04-01T17:54:19.369Z,79.65
2018-04-01T17:55:19.358Z,79.17
2018-04-01T17:56:19.451Z,79.79
2018-04-01T17:57:19.348Z,79.94
2018-04-01T17:58:19.340Z,79.65
2018-04-01T17:59:19.333Z,79.55
2018-04-01T18:00:19.326Z,79.94
2018-04-01T18:01:19.319Z,80.07
2018-04-01T18:02:19.358Z,79.94
2018-04-01T18:03:19.327Z,78.99
2018-04-01T18:04:19.300Z,79.27
2018-04-01T18:05:19.294Z,79.74
2018-04-01T18:06:19.287Z,79.36
2018-04-01T18:07:19.281Z,78.51
2018-04-01T18:08:19.273Z,78.51
2018-04-01T18:09:19.269Z,79.27
2018-04-01T18:10:19.267Z,79.17
2018-04-01T18:11:19.268Z,78.99
2018-04-01T18:12:19.256Z,79.17
2018-04-01T18:13:19.242Z,78.70
2018-04-01T18:14:19.234Z,78.89
2018-04-01T18:15:19.229Z,78.80
2018-04-01T18:16:19.221Z,78.51
2018-04-01T18:17:19.217Z,78.70
2018-04-01T18:18:19.207Z,78.80
2018-04-01T18:19:19.201Z,79.17
2018-04-01T18:20:19.445Z,79.55
2018-04-01T18:21:19.188Z,78.61
2018-04-01T18:22:19.181Z,78.32
2018-04-01T18:23:19.175Z,78.42
2018-04-01T18:24:19.168Z,78.32
2018-04-01T18:25:19.161Z,77.84
2018-04-01T18:26:19.154Z,77.47
2018-04-01T18:27:19.148Z,78.23
2018-04-01T18:28:19.142Z,77.56
2018-04-01T18:29:19.134Z,77.75
2018-04-01T18:30:19.127Z,78.23
2018-04-01T18:31:19.179Z,78.23
2018-04-01T18:32:19.114Z,77.47
2018-04-01T18:33:19.108Z,77.37
2018-04-01T18:34:19.102Z,77.75
2018-04-01T18:35:19.093Z,77.84
2018-04-01T18:36:19.087Z,77.56
2018-04-01T18:37:19.081Z,78.51
2018-04-01T18:38:19.072Z,78.80
2018-04-01T18:39:19.068Z,78.32
2018-04-01T18:40:19.060Z,79.08
2018-04-01T18:41:19.053Z,79.08
2018-04-01T18:42:19.096Z,78.70
2018-04-01T18:43:19.040Z,78.99
2018-04-01T18:44:19.037Z,78.89
2018-04-01T18:45:19.025Z,78.61
2018-04-01T18:46:19.018Z,78.51
2018-04-01T18:47:19.012Z,78.51
2018-04-01T18:48:19.005Z,78.42
2018-04-01T18:49:19.049Z,78.13
2018-04-01T18:50:18.990Z,78.51
2018-04-01T18:51:18.984Z,78.42
2018-04-01T18:52:18.977Z,78.80
2018-04-01T18:53:18.972Z,78.80
2018-04-01T18:54:18.963Z,78.42
2018-04-01T18:55:18.957Z,78.51
2018-04-01T18:56:18.949Z,77.94
2018-04-01T18:57:18.944Z,78.03
2018-04-01T18:58:18.935Z,78.61
2018-04-01T18:59:18.928Z,78.89
2018-04-01T19:00:18.922Z,78.89
2018-04-01T19:01:18.915Z,78.80
2018-04-01T19:02:18.913Z,78.89
2018-04-01T19:03:18.902Z,78.70
2018-04-01T19:04:18.895Z,78.51
2018-04-01T19:05:18.888Z,78.03
2018-04-01T19:06:18.881Z,77.75
2018-04-01T19:07:18.874Z,78.03
2018-04-01T19:08:18.973Z,77.84
2018-04-01T19:09:18.860Z,78.80
2018-04-01T19:10:18.853Z,78.89
2018-04-01T19:11:18.848Z,78.89
2018-04-01T19:12:18.839Z,78.51
2018-04-01T19:13:18.834Z,78.32
2018-04-01T19:14:18.825Z,79.17
2018-04-01T19:15:18.819Z,78.51
2018-04-01T19:16:18.813Z,79.08
2018-04-01T19:17:18.807Z,78.89
2018-04-01T19:18:18.799Z,78.51
2018-04-01T19:19:18.793Z,78.89
2018-04-01T19:20:18.786Z,78.23
2018-04-01T19:21:18.779Z,78.89
2018-04-01T19:22:18.774Z,77.89
2018-04-01T19:23:18.766Z,78.83
2018-04-01T19:24:18.759Z,79.08
2018-04-01T19:25:18.753Z,77.75
2018-04-01T19:26:18.746Z,77.03
2018-04-01T19:27:18.739Z,77.03
2018-04-01T19:28:18.734Z,77.31
2018-04-01T19:29:18.727Z,77.89
2018-04-01T19:30:18.719Z,78.27
2018-04-01T19:31:18.713Z,78.74
2018-04-01T19:32:18.705Z,78.08
2018-04-01T19:33:18.700Z,78.27
2018-04-01T19:34:18.694Z,79.03
2018-04-01T19:35:18.687Z,79.12
2018-04-01T19:36:18.681Z,78.83
2018-04-01T19:37:18.674Z,77.60
2018-04-01T19:38:18.668Z,77.41
2018-04-01T19:39:18.661Z,77.51
2018-04-01T19:40:18.660Z,78.13
2018-04-01T19:41:18.649Z,78.03
2018-04-01T19:42:18.642Z,78.80
2018-04-01T19:43:18.637Z,78.32
2018-04-01T19:44:18.630Z,78.99
2018-04-01T19:45:18.623Z,78.89
2018-04-01T19:46:18.616Z,79.36
2018-04-01T19:47:18.608Z,78.99
2018-04-01T19:48:18.602Z,78.89
2018-04-01T19:49:18.598Z,79.08
2018-04-01T19:50:18.588Z,78.89
2018-04-01T19:51:18.581Z,78.89
2018-04-01T19:52:18.575Z,79.46
2018-04-01T19:53:18.569Z,79.17
2018-04-01T19:54:18.561Z,78.99
2018-04-01T19:55:18.554Z,78.99
2018-04-01T19:56:18.547Z,79.17
2018-04-01T19:57:18.540Z,80.03
2018-04-01T19:58:18.533Z,79.55
2018-04-01T19:59:18.526Z,80.13
2018-04-01T20:00:18.520Z,80.13
2018-04-01T20:01:18.512Z,80.13
2018-04-01T20:02:18.505Z,80.51
2018-04-01T20:03:18.498Z,80.51
2018-04-01T20:04:18.491Z,80.98
2018-04-01T20:05:18.484Z,80.88
2018-04-01T20:06:18.476Z,81.12
2018-04-01T20:07:18.470Z,81.45
2018-04-01T20:08:18.463Z,80.79
2018-04-01T20:09:18.465Z,80.79
2018-04-01T20:10:18.464Z,80.60
2018-04-01T20:11:18.444Z,79.97
2018-04-01T20:12:18.496Z,79.55
2018-04-01T20:13:18.433Z,79.97
2018-04-01T20:14:18.423Z,79.88
2018-04-01T20:15:18.415Z,79.79
2018-04-01T20:16:18.410Z,79.60
2018-04-01T20:17:18.409Z,79.60
2018-04-01T20:18:18.408Z,79.79
2018-04-01T20:19:18.391Z,79.17
2018-04-01T20:20:18.383Z,80.03
2018-04-01T20:21:18.376Z,79.84
2018-04-01T20:22:18.369Z,80.03
2018-04-01T20:23:18.365Z,79.84
2018-04-01T20:24:18.356Z,80.88
2018-04-01T20:25:18.350Z,80.60
2018-04-01T20:26:18.592Z,80.32
2018-04-01T20:27:18.351Z,80.88
2018-04-01T20:28:18.329Z,81.07
2018-04-01T20:29:18.322Z,80.98
2018-04-01T20:30:18.315Z,80.74
2018-04-01T20:31:18.308Z,80.69
2018-04-01T20:32:18.301Z,80.51
2018-04-01T20:33:18.294Z,80.26
2018-04-01T20:34:18.291Z,81.07
2018-04-01T20:35:18.283Z,81.07
2018-04-01T20:36:18.274Z,81.40
2018-04-01T20:37:18.267Z,81.02
2018-04-01T20:38:18.360Z,81.12
2018-04-01T20:39:18.254Z,81.49
2018-04-01T20:40:18.246Z,81.07
2018-04-01T20:41:18.240Z,81.07
2018-04-01T20:42:18.256Z,81.45
2018-04-01T20:43:18.226Z,81.49
2018-04-01T20:44:18.220Z,81.84
2018-04-01T20:45:18.214Z,81.65
2018-04-01T20:46:18.206Z,82.03
2018-04-01T20:47:18.200Z,81.74
2018-04-01T20:48:18.193Z,81.45
2018-04-01T20:49:18.187Z,82.21
2018-04-01T20:50:18.178Z,82.21
2018-04-01T20:51:18.173Z,81.84
2018-04-01T20:52:18.166Z,82.88
2018-04-01T20:53:18.159Z,82.31
2018-04-01T20:54:18.152Z,82.88
2018-04-01T20:55:18.145Z,82.21
2018-04-01T20:56:18.193Z,82.31
2018-04-01T20:57:18.132Z,82.92
2018-04-01T20:58:18.124Z,82.50
2018-04-01T20:59:18.118Z,82.78
2018-04-01T21:00:18.110Z,82.50
2018-04-01T21:01:18.103Z,82.78
2018-04-01T21:02:18.102Z,83.49
2018-04-01T21:03:18.090Z,83.54
2018-04-01T21:04:18.090Z,83.39
2018-04-01T21:05:18.076Z,83.59
2018-04-01T21:06:18.073Z,83.92
2018-04-01T21:07:18.062Z,84.06
2018-04-01T21:08:18.055Z,84.59
2018-04-01T21:09:18.049Z,83.59
2018-04-01T21:10:18.044Z,82.82
2018-04-01T21:11:18.035Z,83.07
2018-04-01T21:12:18.029Z,83.01
2018-04-01T21:13:18.022Z,83.39
2018-04-01T21:14:18.015Z,83.87
2018-04-01T21:15:18.008Z,82.92
2018-04-01T21:16:18.000Z,82.73
2018-04-01T21:17:17.996Z,82.64
2018-04-01T21:18:17.989Z,83.39
2018-04-01T21:19:17.982Z,83.30
2018-04-01T21:20:17.976Z,83.11
2018-04-01T21:21:17.969Z,83.20
2018-04-01T21:22:17.964Z,83.39
2018-04-01T21:23:17.956Z,83.59
2018-04-01T21:24:17.950Z,84.16
2018-04-01T21:25:17.943Z,84.44
2018-04-01T21:26:17.935Z,84.16
2018-04-01T21:27:17.930Z,84.44
2018-04-01T21:28:17.924Z,84.34
2018-04-01T21:29:17.919Z,83.87
2018-04-01T21:30:17.910Z,82.92
2018-04-01T21:31:17.904Z,83.20
2018-04-01T21:32:17.898Z,83.39
2018-04-01T21:33:17.892Z,82.92
2018-04-01T21:34:17.885Z,83.68
2018-04-01T21:35:17.879Z,83.39
2018-04-01T21:36:17.872Z,83.11
2018-04-01T21:37:17.867Z,84.06
2018-04-01T21:38:17.860Z,83.39
2018-04-01T21:39:17.854Z,83.39
2018-04-01T21:40:17.848Z,83.11
2018-04-01T21:41:17.842Z,82.92
2018-04-01T21:42:17.834Z,82.82
2018-04-01T21:43:17.829Z,82.82
2018-04-01T21:44:17.824Z,83.49
2018-04-01T21:45:17.817Z,82.64
2018-04-01T21:46:17.810Z,83.01
2018-04-01T21:47:17.803Z,83.59
2018-04-01T21:48:17.799Z,83.49
2018-04-01T21:49:17.794Z,82.45
2018-04-01T21:50:17.786Z,82.07
2018-04-01T21:51:17.785Z,82.35
2018-04-01T21:52:17.774Z,82.26
2018-04-01T21:53:17.768Z,81.87
2018-04-01T21:54:17.761Z,82.07
2018-04-01T21:55:17.755Z,82.73
2018-04-01T21:56:17.751Z,82.64
2018-04-01T21:57:17.744Z,82.45
2018-04-01T21:58:17.740Z,82.07
2018-04-01T21:59:17.732Z,81.87
2018-04-01T22:00:17.730Z,82.82
2018-04-01T22:01:17.721Z,81.87
2018-04-01T22:02:17.718Z,82.26
2018-04-01T22:03:17.707Z,81.87
2018-04-01T22:04:17.701Z,82.54
2018-04-01T22:05:17.696Z,82.45
2018-04-01T22:06:17.695Z,82.16
2018-04-01T22:07:17.683Z,82.45
2018-04-01T22:08:17.679Z,83.11
2018-04-01T22:09:17.671Z,82.73
2018-04-01T22:10:17.665Z,83.01
2018-04-01T22:11:17.659Z,82.07
2018-04-01T22:12:17.654Z,82.54
2018-04-01T22:13:17.648Z,82.54
2018-04-01T22:14:17.641Z,82.35
2018-04-01T22:15:17.640Z,81.97
2018-04-01T22:16:17.629Z,82.45
2018-04-01T22:17:17.625Z,82.73
2018-04-01T22:18:17.616Z,82.92
2018-04-01T22:19:17.611Z,83.20
2018-04-01T22:20:17.604Z,83.68
2018-04-01T22:21:17.606Z,83.78
2018-04-01T22:22:17.599Z,83.78
2018-04-01T22:23:17.601Z,84.06
2018-04-01T22:24:17.580Z,84.34
2018-04-01T22:25:17.575Z,84.34
2018-04-01T22:26:17.567Z,85.77
2018-04-01T22:27:17.560Z,85.49
2018-04-01T22:28:17.560Z,85.49
2018-04-01T22:29:17.547Z,85.63
2018-04-01T22:30:17.546Z,86.01
2018-04-01T22:31:17.548Z,86.77
2018-04-01T22:32:17.528Z,87.19
2018-04-01T22:33:17.520Z,87.67
2018-04-01T22:34:17.513Z,87.82
2018-04-01T22:35:17.505Z,87.48
2018-04-01T22:36:17.499Z,87.57
2018-04-01T22:37:17.493Z,87.76
2018-04-01T22:38:17.486Z,87.62
2018-04-01T22:39:17.479Z,87.57
2018-04-01T22:40:17.472Z,87.91
2018-04-01T22:41:17.465Z,87.91
2018-04-01T22:42:17.458Z,87.82
2018-04-01T22:43:17.452Z,88.67
2018-04-01T22:44:17.495Z,89.33
2018-04-01T22:45:17.439Z,89.43
2018-04-01T22:46:17.430Z,88.57
2018-04-01T22:47:17.425Z,89.05
2018-04-01T22:48:17.418Z,89.53
2018-04-01T22:49:17.411Z,89.81
2018-04-01T22:50:17.404Z,89.62
2018-04-01T22:51:17.397Z,89.43
2018-04-01T22:52:17.390Z,89.81
2018-04-01T22:53:17.385Z,90.66
2018-04-01T22:54:17.377Z,89.81
2018-04-01T22:55:17.371Z,88.95
2018-04-01T22:56:17.365Z,88.29
2018-04-01T22:57:17.357Z,87.91
2018-04-01T22:58:17.350Z,87.62
2018-04-01T22:59:17.344Z,87.62
2018-04-01T23:00:17.337Z,88.39
2018-04-01T23:01:17.335Z,88.95
2018-04-01T23:02:17.323Z,89.05
2018-04-01T23:03:17.317Z,88.20
2018-04-01T23:04:17.312Z,87.82
2018-04-01T23:05:17.305Z,87.53
2018-04-01T23:06:17.297Z,87.34
2018-04-01T23:07:17.291Z,87.72
2018-04-01T23:08:17.284Z,88.20
2018-04-01T23:09:17.277Z,87.62
2018-04-01T23:10:17.316Z,87.82
2018-04-01T23:11:17.264Z,87.72
2018-04-01T23:12:17.263Z,87.53
2018-04-01T23:13:17.251Z,87.43
2018-04-01T23:14:17.244Z,88.01
2018-04-01T23:15:17.236Z,87.62
2018-04-01T23:16:17.229Z,88.29
2018-04-01T23:17:17.224Z,88.57
2018-04-01T23:18:17.214Z,88.01
2018-04-01T23:19:17.209Z,87.76
2018-04-01T23:20:17.204Z,87.91
2018-04-01T23:21:17.196Z,87.62
2018-04-01T23:22:17.189Z,87.62
2018-04-01T23:23:17.210Z,87.72
2018-04-01T23:24:17.178Z,87.91
2018-04-01T23:25:17.176Z,87.62
2018-04-01T23:26:17.162Z,88.29
2018-04-01T23:27:17.161Z,88.29
2018-04-01T23:28:17.195Z,88.67
2018-04-01T23:29:17.145Z,88.86
2018-04-01T23:30:17.134Z,88.57
2018-04-01T23:31:17.127Z,88.95
2018-04-01T23:32:17.123Z,88.86
2018-04-01T23:33:17.114Z,89.24
2018-04-01T23:34:17.108Z,89.62
2018-04-01T23:35:17.108Z,89.62
2018-04-01T23:36:17.095Z,89.72
2018-04-01T23:37:17.086Z,89.53
2018-04-01T23:38:17.142Z,89.62
2018-04-01T23:39:17.073Z,90.09
2018-04-01T23:40:17.066Z,89.81
2018-04-01T23:41:17.064Z,90.66
2018-04-01T23:42:17.054Z,90.28
2018-04-01T23:43:17.043Z,90.85
2018-04-01T23:44:17.040Z,90.66
2018-04-01T23:45:17.032Z,90.95
2018-04-01T23:46:17.025Z,90.76
2018-04-01T23:47:17.019Z,90.66
2018-04-01T23:48:17.009Z,90.76
2018-04-01T23:49:17.003Z,90.76
2018-04-01T23:50:16.994Z,91.24
2018-04-01T23:51:16.987Z,90.76
2018-04-01T23:52:16.981Z,91.42
2018-04-01T23:53:16.977Z,91.52
2018-04-01T23:54:16.970Z,91.24
2018-04-01T23:55:16.958Z,91.24
2018-04-01T23:56:16.952Z,91.24
2018-04-01T23:57:16.945Z,91.71
2018-04-01T23:58:16.936Z,91.52
2018-04-01T23:59:16.929Z,91.99
